Time;durP1;ratioP1;P1;durP2;ratioP2;P2;SDS_P1;SDS_P2;PMS_P1;PMS_P2;Temp;Humidity;BMP_temperature;BMP_pressure;BME280_temperature;BME280_humidity;BME280_pressure;Samples;Min_cycle;Max_cycle;Signal;HPM_P1;HPM_P2
2023/01/12 00:02:17;;;;;;;607.53;261.40;;;;;;;;;;4984325;28;20232;-55
2023/01/12 00:04:43;;;;;;;609.77;249.60;;;;;;;;;;4994102;28;20232;-55
2023/01/12 00:07:10;;;;;;;646.07;272.53;;;;;;;;;;4989999;28;20284;-55
2023/01/12 00:09:37;;;;;;;627.07;253.70;;;;;;;;;;4988228;28;20220;-55
2023/01/12 00:12:04;;;;;;;593.67;238.80;;;;;;;;;;4987680;28;20208;-56
2023/01/12 00:14:31;;;;;;;669.73;270.80;;;;;;;;;;4989599;28;20336;-56
2023/01/12 00:16:57;;;;;;;634.23;264.23;;;;;;;;;;4992137;28;20216;-55
2023/01/12 00:19:23;;;;;;;630.53;264.47;;;;;;;;;;4990791;28;20624;-56
2023/01/12 00:24:33;;;;;;;633.50;260.50;;;;;;;;;;4993268;28;20219;-55
2023/01/12 00:27:00;;;;;;;616.17;254.23;;;;;;;;;;4989708;28;21167;-55
2023/01/12 00:29:27;;;;;;;640.67;259.30;;;;;;;;;;4992632;28;20282;-56
2023/01/12 00:31:54;;;;;;;677.80;276.43;;;;;;;;;;4992629;28;20204;-55
2023/01/12 00:34:20;;;;;;;631.17;263.93;;;;;;;;;;4991263;28;20173;-55
2023/01/12 00:36:46;;;;;;;645.87;263.10;;;;;;;;;;4982765;28;20430;-55
2023/01/12 00:39:13;;;;;;;630.73;262.63;;;;;;;;;;4985742;28;20691;-56
2023/01/12 00:47:10;;;;;;;619.47;255.60;;;;;;;;;;4982989;28;20270;-55
2023/01/12 00:49:37;;;;;;;628.27;258.00;;;;;;;;;;4984103;28;20243;-55
2023/01/12 00:52:04;;;;;;;682.53;278.60;;;;;;;;;;4984490;28;20204;-55
2023/01/12 00:54:31;;;;;;;616.23;255.57;;;;;;;;;;4990267;28;20225;-55
2023/01/12 00:56:57;;;;;;;618.50;256.57;;;;;;;;;;4992634;28;20716;-55
2023/01/12 00:59:23;;;;;;;602.87;243.57;;;;;;;;;;4984962;28;20250;-55
2023/01/12 01:01:49;;;;;;;593.47;241.27;;;;;;;;;;4983137;28;20208;-55
2023/01/12 01:04:15;;;;;;;610.47;249.27;;;;;;;;;;4986078;28;20190;-55
2023/01/12 01:06:41;;;;;;;644.60;255.33;;;;;;;;;;4986320;28;20623;-55
2023/01/12 01:09:07;;;;;;;640.60;268.10;;;;;;;;;;4988193;28;20213;-55
2023/01/12 01:11:34;;;;;;;598.67;241.23;;;;;;;;;;4988957;28;20225;-56
2023/01/12 01:14:00;;;;;;;666.67;261.57;;;;;;;;;;4983735;28;20367;-55
2023/01/12 01:16:28;;;;;;;611.40;244.93;;;;;;;;;;4985735;28;20280;-55
2023/01/12 01:18:54;;;;;;;627.43;267.27;;;;;;;;;;4991819;28;20371;-55
2023/01/12 01:21:20;;;;;;;628.70;254.50;;;;;;;;;;4984620;28;20271;-55
2023/01/12 01:23:47;;;;;;;649.67;272.77;;;;;;;;;;4985954;28;20244;-55
2023/01/12 01:26:15;;;;;;;600.27;255.23;;;;;;;;;;4988682;28;20224;-55
2023/01/12 01:28:41;;;;;;;610.90;255.07;;;;;;;;;;4983878;28;20243;-55
2023/01/12 01:31:09;;;;;;;665.53;270.83;;;;;;;;;;4983734;28;20177;-55
2023/01/12 01:33:35;;;;;;;646.37;275.57;;;;;;;;;;4986881;28;20489;-55
2023/01/12 01:36:01;;;;;;;610.13;257.83;;;;;;;;;;4989054;28;20220;-55
2023/01/12 01:38:27;;;;;;;611.00;247.80;;;;;;;;;;4989767;28;20568;-55
2023/01/12 01:40:53;;;;;;;646.90;262.37;;;;;;;;;;4986616;28;20209;-55
2023/01/12 01:43:21;;;;;;;677.97;287.23;;;;;;;;;;4983195;28;20232;-55
2023/01/12 01:45:50;;;;;;;642.90;255.70;;;;;;;;;;4988521;28;20220;-55
2023/01/12 01:48:17;;;;;;;573.93;226.50;;;;;;;;;;4983638;28;20236;-55
2023/01/12 01:50:47;;;;;;;606.73;256.03;;;;;;;;;;4988755;28;20223;-55
2023/01/12 01:53:17;;;;;;;631.57;270.13;;;;;;;;;;4984248;28;20482;-56
2023/01/12 01:55:48;;;;;;;599.90;257.03;;;;;;;;;;4988796;28;20188;-55
2023/01/12 01:58:26;;;;;;;648.10;278.00;;;;;;;;;;4989530;28;20271;-55
2023/01/12 02:00:52;;;;;;;609.93;250.17;;;;;;;;;;4981422;28;20225;-55
2023/01/12 02:03:19;;;;;;;673.53;284.73;;;;;;;;;;4983254;28;20235;-55
2023/01/12 02:05:48;;;;;;;593.90;254.93;;;;;;;;;;4982503;28;20373;-55
2023/01/12 02:08:33;;;;;;;613.53;251.20;;;;;;;;;;4993184;28;20239;-55
2023/01/12 02:11:02;;;;;;;608.93;249.20;;;;;;;;;;4995483;28;20698;-55
2023/01/12 02:16:32;;;;;;;633.63;260.10;;;;;;;;;;4944020;28;20297;-55
2023/01/12 02:19:04;;;;;;;611.47;253.63;;;;;;;;;;4975876;28;20220;-55
2023/01/12 02:21:30;;;;;;;631.23;258.37;;;;;;;;;;4983520;28;20569;-55
2023/01/12 02:23:56;;;;;;;652.10;289.23;;;;;;;;;;4980596;28;20221;-55
2023/01/12 02:26:40;;;;;;;647.57;272.77;;;;;;;;;;4977052;28;20276;-56
2023/01/12 02:29:07;;;;;;;622.73;265.90;;;;;;;;;;4982107;28;20305;-55
2023/01/12 02:31:43;;;;;;;680.87;290.07;;;;;;;;;;4978622;28;20558;-55
2023/01/12 02:34:17;;;;;;;623.53;264.70;;;;;;;;;;4982285;28;20308;-55
2023/01/12 02:37:03;;;;;;;645.53;264.27;;;;;;;;;;4983334;28;20220;-55
2023/01/12 02:39:32;;;;;;;613.07;259.47;;;;;;;;;;4986070;28;20221;-55
2023/01/12 02:44:52;;;;;;;636.63;273.70;;;;;;;;;;4981164;28;20235;-55
2023/01/12 02:47:22;;;;;;;617.77;256.07;;;;;;;;;;4976635;28;20220;-54
2023/01/12 02:49:52;;;;;;;557.97;228.37;;;;;;;;;;4983757;28;20288;-53
2023/01/12 02:52:19;;;;;;;634.40;254.07;;;;;;;;;;4983355;28;21153;-54
2023/01/12 02:54:47;;;;;;;629.37;258.53;;;;;;;;;;4979566;28;21648;-54
2023/01/12 02:57:15;;;;;;;681.57;288.33;;;;;;;;;;4978450;28;20341;-54
2023/01/12 02:59:44;;;;;;;560.93;225.97;;;;;;;;;;4991393;28;20611;-54
2023/01/12 03:02:12;;;;;;;645.27;265.90;;;;;;;;;;4978858;28;20224;-53
2023/01/12 03:04:40;;;;;;;748.37;334.93;;;;;;;;;;5001429;23;20295;-50
2023/01/12 03:07:22;;;;;;;778.50;353.80;;;;;;;;;;4967386;28;20252;-50
2023/01/12 03:09:51;;;;;;;650.10;287.33;;;;;;;;;;4986190;28;20432;-50
2023/01/12 03:12:19;;;;;;;719.53;321.83;;;;;;;;;;4974650;28;22125;-50
2023/01/12 03:14:47;;;;;;;716.00;320.93;;;;;;;;;;4970660;28;20274;-51
2023/01/12 03:17:15;;;;;;;736.13;332.63;;;;;;;;;;4975333;28;20596;-49
2023/01/12 03:19:43;;;;;;;752.17;337.50;;;;;;;;;;4977243;28;20968;-50
2023/01/12 03:22:11;;;;;;;769.13;340.87;;;;;;;;;;4973685;28;20363;-51
2023/01/12 03:24:38;;;;;;;769.33;346.13;;;;;;;;;;4965217;28;20540;-51
2023/01/12 03:27:07;;;;;;;798.23;353.27;;;;;;;;;;4974798;28;20240;-51
2023/01/12 03:29:42;;;;;;;741.13;335.07;;;;;;;;;;4978290;28;20324;-52
2023/01/12 03:32:08;;;;;;;767.93;363.33;;;;;;;;;;4977584;28;20309;-50
2023/01/12 03:34:36;;;;;;;698.33;306.03;;;;;;;;;;4977620;28;20184;-51
2023/01/12 03:37:06;;;;;;;739.17;323.53;;;;;;;;;;4964323;28;21188;-50
2023/01/12 03:39:58;;;;;;;731.93;325.43;;;;;;;;;;4972489;28;20555;-49
2023/01/12 03:42:36;;;;;;;805.53;373.00;;;;;;;;;;4972502;28;20560;-51
2023/01/12 03:45:08;;;;;;;699.97;309.77;;;;;;;;;;4977855;28;20532;-50
2023/01/12 03:47:35;;;;;;;664.17;295.47;;;;;;;;;;4968590;28;20738;-50
2023/01/12 03:50:10;;;;;;;658.70;292.73;;;;;;;;;;4983320;28;20382;-52
2023/01/12 03:52:38;;;;;;;673.87;297.67;;;;;;;;;;4979586;28;20289;-49
2023/01/12 03:55:06;;;;;;;814.37;366.03;;;;;;;;;;4977536;28;20610;-50
2023/01/12 03:57:33;;;;;;;791.33;360.13;;;;;;;;;;4983629;28;20215;-50
2023/01/12 04:00:00;;;;;;;853.83;391.80;;;;;;;;;;4978565;28;20303;-50
2023/01/12 04:02:26;;;;;;;758.97;338.53;;;;;;;;;;4978939;28;20602;-50
2023/01/12 04:04:52;;;;;;;765.13;352.03;;;;;;;;;;4981429;28;20896;-50
2023/01/12 04:07:19;;;;;;;808.93;371.17;;;;;;;;;;4966950;28;21228;-49
2023/01/12 04:09:45;;;;;;;823.87;377.63;;;;;;;;;;4980583;28;20757;-50
2023/01/12 04:12:11;;;;;;;734.63;336.70;;;;;;;;;;4964677;28;20224;-50
2023/01/12 04:14:42;;;;;;;697.93;306.97;;;;;;;;;;4978890;28;20243;-50
2023/01/12 04:17:09;;;;;;;767.40;354.30;;;;;;;;;;4982595;28;20290;-50
2023/01/12 04:19:34;;;;;;;821.90;377.93;;;;;;;;;;4984900;28;20271;-49
2023/01/12 04:24:47;;;;;;;689.70;303.87;;;;;;;;;;4969854;28;20469;-50
2023/01/12 04:27:13;;;;;;;851.07;396.73;;;;;;;;;;4973738;28;20282;-51
2023/01/12 04:29:39;;;;;;;744.33;328.23;;;;;;;;;;4982564;28;20555;-51
2023/01/12 04:32:05;;;;;;;784.10;347.20;;;;;;;;;;4965582;28;20291;-51
2023/01/12 04:34:31;;;;;;;834.43;396.63;;;;;;;;;;4975641;28;20222;-50
2023/01/12 04:36:58;;;;;;;803.47;365.13;;;;;;;;;;4975807;28;20314;-50
2023/01/12 04:39:24;;;;;;;801.40;374.47;;;;;;;;;;4974322;28;21000;-51
2023/01/12 04:41:50;;;;;;;851.63;385.50;;;;;;;;;;4974447;28;20809;-50
2023/01/12 04:44:16;;;;;;;748.07;331.67;;;;;;;;;;4976544;28;20707;-50
2023/01/12 04:46:42;;;;;;;821.90;371.20;;;;;;;;;;4987537;28;20331;-51
2023/01/12 04:49:08;;;;;;;709.97;321.33;;;;;;;;;;4989589;28;20394;-50
2023/01/12 04:51:34;;;;;;;863.83;405.70;;;;;;;;;;4965147;28;20307;-48
2023/01/12 04:54:00;;;;;;;881.90;411.97;;;;;;;;;;4961747;28;20243;-50
2023/01/12 04:56:26;;;;;;;781.47;352.33;;;;;;;;;;4974734;28;20349;-49
2023/01/12 04:58:58;;;;;;;840.47;394.97;;;;;;;;;;4977073;28;20695;-50
2023/01/12 05:01:25;;;;;;;725.70;319.77;;;;;;;;;;4982874;28;20973;-49
2023/01/12 05:03:53;;;;;;;716.73;320.37;;;;;;;;;;4983653;28;20344;-50
2023/01/12 05:06:19;;;;;;;800.57;374.47;;;;;;;;;;4974626;28;20334;-51
2023/01/12 05:11:30;;;;;;;774.60;361.33;;;;;;;;;;4979990;28;20363;-49
2023/01/12 05:13:56;;;;;;;694.53;304.30;;;;;;;;;;4975940;28;20310;-49
2023/01/12 05:16:23;;;;;;;733.40;333.30;;;;;;;;;;4992427;28;20255;-51
2023/01/12 05:18:49;;;;;;;745.50;334.13;;;;;;;;;;4968835;28;20736;-51
2023/01/12 05:21:16;;;;;;;868.97;404.27;;;;;;;;;;4986481;28;20536;-55
2023/01/12 05:23:42;;;;;;;789.43;360.23;;;;;;;;;;4971617;28;22017;-51
2023/01/12 05:26:09;;;;;;;773.57;350.47;;;;;;;;;;4977223;28;20690;-49
2023/01/12 05:28:35;;;;;;;802.27;368.37;;;;;;;;;;4969297;28;20358;-50
2023/01/12 05:31:06;;;;;;;800.83;364.57;;;;;;;;;;4973346;28;20180;-52
2023/01/12 05:33:32;;;;;;;748.27;352.13;;;;;;;;;;4982868;28;20216;-50
2023/01/12 05:35:58;;;;;;;760.77;336.67;;;;;;;;;;4981108;28;20559;-51
2023/01/12 05:38:24;;;;;;;720.87;328.90;;;;;;;;;;4985959;28;20671;-50
2023/01/12 05:40:53;;;;;;;698.50;316.60;;;;;;;;;;4990174;28;20238;-51
2023/01/12 05:46:04;;;;;;;767.60;346.23;;;;;;;;;;4985280;28;20224;-49
2023/01/12 05:48:31;;;;;;;825.53;382.43;;;;;;;;;;4985357;28;20297;-51
2023/01/12 05:51:04;;;;;;;857.17;393.23;;;;;;;;;;4968634;28;20426;-50
2023/01/12 05:53:30;;;;;;;784.03;358.10;;;;;;;;;;4978293;28;20466;-50
2023/01/12 05:55:57;;;;;;;737.57;339.00;;;;;;;;;;4982032;28;20216;-52
2023/01/12 05:58:23;;;;;;;785.27;357.13;;;;;;;;;;4989577;28;20201;-50
2023/01/12 06:00:49;;;;;;;780.67;349.80;;;;;;;;;;4974140;28;20639;-50
2023/01/12 06:03:16;;;;;;;727.17;330.37;;;;;;;;;;4973119;28;20519;-51
2023/01/12 06:05:42;;;;;;;737.53;330.30;;;;;;;;;;4971370;28;20339;-51
2023/01/12 06:08:08;;;;;;;746.93;329.97;;;;;;;;;;4977924;28;20631;-50
2023/01/12 06:10:35;;;;;;;692.10;308.60;;;;;;;;;;4984265;28;20221;-49
2023/01/12 06:15:46;;;;;;;731.00;332.23;;;;;;;;;;4966562;28;20224;-51
2023/01/12 06:18:12;;;;;;;763.70;333.87;;;;;;;;;;4961191;28;20228;-50
2023/01/12 06:20:38;;;;;;;906.10;452.00;;;;;;;;;;4962122;28;20291;-53
2023/01/12 06:23:04;;;;;;;903.37;424.23;;;;;;;;;;4936559;28;20256;-53
2023/01/12 06:25:31;;;;;;;794.63;346.30;;;;;;;;;;4961163;28;20211;-52
2023/01/12 06:27:57;;;;;;;805.60;366.77;;;;;;;;;;4974109;28;20291;-51
2023/01/12 06:30:23;;;;;;;940.00;442.77;;;;;;;;;;4969556;28;20218;-50
2023/01/12 06:32:49;;;;;;;781.93;375.00;;;;;;;;;;4973103;28;20884;-53
2023/01/12 06:35:16;;;;;;;745.70;335.07;;;;;;;;;;4965292;28;20209;-52
2023/01/12 06:37:42;;;;;;;830.30;382.90;;;;;;;;;;4976529;28;20800;-53
2023/01/12 06:40:08;;;;;;;839.00;398.03;;;;;;;;;;4971178;28;20466;-54
2023/01/12 06:42:39;;;;;;;909.37;420.23;;;;;;;;;;4965955;28;20227;-52
2023/01/12 06:45:05;;;;;;;775.40;349.53;;;;;;;;;;4975206;28;20521;-51
2023/01/12 06:47:32;;;;;;;818.27;373.90;;;;;;;;;;4967944;28;20340;-48
2023/01/12 06:49:58;;;;;;;750.20;338.20;;;;;;;;;;4977349;28;20227;-49
2023/01/12 06:52:25;;;;;;;838.17;391.40;;;;;;;;;;4963636;28;20196;-50
2023/01/12 06:54:52;;;;;;;837.27;392.10;;;;;;;;;;4960464;28;20297;-49
2023/01/12 06:57:18;;;;;;;741.17;345.33;;;;;;;;;;4969319;28;20587;-50
2023/01/12 06:59:45;;;;;;;749.13;348.47;;;;;;;;;;4967201;28;20223;-52
2023/01/12 07:02:12;;;;;;;801.90;374.13;;;;;;;;;;4969185;28;20297;-52
2023/01/12 07:04:38;;;;;;;834.50;384.80;;;;;;;;;;4962783;28;20890;-53
2023/01/12 07:07:05;;;;;;;778.40;359.80;;;;;;;;;;4975740;28;20540;-52
2023/01/12 07:09:31;;;;;;;1189.33;610.03;;;;;;;;;;4940471;28;20875;-54
2023/01/12 07:11:57;;;;;;;847.70;397.03;;;;;;;;;;4945723;28;20269;-50
2023/01/12 07:14:23;;;;;;;770.17;346.87;;;;;;;;;;4959501;28;20508;-49
2023/01/12 07:16:49;;;;;;;951.87;458.77;;;;;;;;;;4957144;28;20192;-50
2023/01/12 07:19:15;;;;;;;987.03;463.90;;;;;;;;;;4964921;28;20176;-53
2023/01/12 07:21:43;;;;;;;824.87;380.83;;;;;;;;;;4957692;28;20789;-53
2023/01/12 07:24:09;;;;;;;837.57;387.40;;;;;;;;;;4973048;28;20216;-52
2023/01/12 07:26:35;;;;;;;835.57;388.13;;;;;;;;;;4951385;28;20491;-51
2023/01/12 07:29:01;;;;;;;853.83;389.07;;;;;;;;;;4957066;28;20376;-53
2023/01/12 07:31:27;;;;;;;832.57;389.97;;;;;;;;;;4958388;28;20285;-52
2023/01/12 07:33:55;;;;;;;946.77;458.40;;;;;;;;;;4964113;28;21492;-52
2023/01/12 07:36:24;;;;;;;842.97;387.27;;;;;;;;;;4969342;28;20273;-53
2023/01/12 07:38:50;;;;;;;856.23;403.33;;;;;;;;;;4961204;28;20272;-53
2023/01/12 07:44:01;;;;;;;857.77;400.80;;;;;;;;;;4970625;28;20279;-52
2023/01/12 07:46:28;;;;;;;728.00;331.67;;;;;;;;;;4995382;28;20257;-52
2023/01/12 07:48:54;;;;;;;809.23;359.80;;;;;;;;;;4949513;28;20502;-52
2023/01/12 07:51:20;;;;;;;828.13;376.83;;;;;;;;;;4984628;28;20310;-52
2023/01/12 07:53:47;;;;;;;841.30;397.30;;;;;;;;;;4967731;28;20226;-54
2023/01/12 07:56:14;;;;;;;806.83;373.00;;;;;;;;;;4975876;28;21685;-52
2023/01/12 07:58:41;;;;;;;739.50;343.23;;;;;;;;;;4997810;28;20274;-53
2023/01/12 08:01:08;;;;;;;772.63;345.60;;;;;;;;;;5000881;28;20187;-51
2023/01/12 08:03:34;;;;;;;786.87;373.57;;;;;;;;;;4992336;28;20315;-53
2023/01/12 08:06:00;;;;;;;774.90;347.47;;;;;;;;;;4998518;28;20337;-52
2023/01/12 08:08:29;;;;;;;776.20;359.40;;;;;;;;;;5014868;28;20272;-51
2023/01/12 08:11:00;;;;;;;746.20;339.97;;;;;;;;;;4998703;28;20296;-52
2023/01/12 08:13:26;;;;;;;805.03;349.73;;;;;;;;;;5003819;28;20734;-52
2023/01/12 08:15:53;;;;;;;751.73;348.63;;;;;;;;;;4997043;28;20298;-52
2023/01/12 08:18:24;;;;;;;782.10;351.07;;;;;;;;;;5006111;28;20536;-53
2023/01/12 08:20:51;;;;;;;769.87;345.10;;;;;;;;;;5002153;28;20306;-51
2023/01/12 08:23:23;;;;;;;829.20;379.43;;;;;;;;;;4997174;28;20595;-52
2023/01/12 08:25:55;;;;;;;791.90;369.20;;;;;;;;;;4994496;28;20946;-51
2023/01/12 08:28:23;;;;;;;725.37;330.80;;;;;;;;;;4989229;28;20664;-53
2023/01/12 08:30:50;;;;;;;912.07;426.63;;;;;;;;;;4984000;28;20543;-53
2023/01/12 08:33:16;;;;;;;849.87;383.80;;;;;;;;;;4990852;28;20215;-52
2023/01/12 08:35:45;;;;;;;856.73;396.67;;;;;;;;;;4978019;28;20681;-51
2023/01/12 08:38:11;;;;;;;810.43;361.50;;;;;;;;;;4990082;28;20220;-52
2023/01/12 08:46:06;;;;;;;813.87;370.80;;;;;;;;;;4996317;28;20238;-53
2023/01/12 08:48:36;;;;;;;725.30;325.60;;;;;;;;;;4996634;28;20656;-52
2023/01/12 08:51:03;;;;;;;798.90;358.13;;;;;;;;;;4995346;28;20804;-53
2023/01/12 08:53:29;;;;;;;909.77;431.20;;;;;;;;;;4990349;28;20212;-53
2023/01/12 08:55:55;;;;;;;823.37;379.90;;;;;;;;;;4973377;28;20314;-53
2023/01/12 08:58:22;;;;;;;822.30;373.63;;;;;;;;;;4982985;28;21240;-51
2023/01/12 09:00:48;;;;;;;959.57;450.63;;;;;;;;;;4976854;28;20359;-51
2023/01/12 09:03:14;;;;;;;899.60;409.10;;;;;;;;;;4971448;28;20735;-52
2023/01/12 09:05:41;;;;;;;814.03;358.37;;;;;;;;;;4986006;28;20247;-52
2023/01/12 09:08:07;;;;;;;836.80;372.80;;;;;;;;;;4992422;28;20589;-52
2023/01/12 09:10:33;;;;;;;758.90;334.83;;;;;;;;;;4992843;23;20229;-57
2023/01/12 09:13:00;;;;;;;739.40;319.10;;;;;;;;;;4942969;28;20313;-57
2023/01/12 09:15:26;;;;;;;755.47;329.70;;;;;;;;;;4923040;28;20224;-56
2023/01/12 09:17:52;;;;;;;908.70;413.53;;;;;;;;;;4917438;28;20218;-57
2023/01/12 09:20:18;;;;;;;753.13;318.20;;;;;;;;;;4936891;28;20602;-57
2023/01/12 09:22:44;;;;;;;724.37;302.73;;;;;;;;;;4950046;28;20490;-57
2023/01/12 09:25:11;;;;;;;655.10;277.73;;;;;;;;;;4943439;28;20288;-57
2023/01/12 09:27:37;;;;;;;737.27;316.17;;;;;;;;;;4930159;28;20229;-57
2023/01/12 09:30:04;;;;;;;776.10;340.13;;;;;;;;;;4924500;28;21322;-57
2023/01/12 09:32:30;;;;;;;829.10;360.80;;;;;;;;;;4928687;28;20226;-57
2023/01/12 09:34:58;;;;;;;784.97;350.47;;;;;;;;;;4941233;28;21311;-57
2023/01/12 09:37:24;;;;;;;763.47;333.13;;;;;;;;;;4912685;28;20198;-57
2023/01/12 09:39:50;;;;;;;908.63;411.50;;;;;;;;;;4926302;28;20875;-57
2023/01/12 09:47:47;;;;;;;752.80;314.87;;;;;;;;;;4942313;28;20256;-57
2023/01/12 09:50:13;;;;;;;805.10;347.47;;;;;;;;;;4931464;28;20217;-57
2023/01/12 09:52:43;;;;;;;746.63;325.93;;;;;;;;;;4925878;28;20393;-57
2023/01/12 09:55:12;;;;;;;748.37;324.83;;;;;;;;;;4942027;28;20502;-57
2023/01/12 09:57:48;;;;;;;766.37;339.00;;;;;;;;;;4932826;28;20829;-57
2023/01/12 10:00:18;;;;;;;815.20;365.47;;;;;;;;;;4930720;28;20289;-57
2023/01/12 10:03:03;;;;;;;802.93;359.50;;;;;;;;;;4931711;28;20487;-57
2023/01/12 10:05:44;;;;;;;712.27;305.80;;;;;;;;;;4945601;28;20221;-57
2023/01/12 10:08:16;;;;;;;743.67;315.07;;;;;;;;;;4947616;28;20485;-56
2023/01/12 10:10:46;;;;;;;696.50;291.33;;;;;;;;;;4947202;28;20196;-56
2023/01/12 10:13:13;;;;;;;727.37;304.17;;;;;;;;;;4947510;28;20198;-56
2023/01/12 10:15:48;;;;;;;685.27;287.93;;;;;;;;;;4953775;28;20695;-56
2023/01/12 10:18:23;;;;;;;712.10;304.33;;;;;;;;;;4942548;28;20381;-56
2023/01/12 10:20:49;;;;;;;704.47;300.23;;;;;;;;;;4943595;28;20209;-56
2023/01/12 10:23:18;;;;;;;799.07;352.43;;;;;;;;;;4946746;28;20760;-56
2023/01/12 10:25:48;;;;;;;787.27;346.70;;;;;;;;;;4944967;28;20205;-56
2023/01/12 10:28:24;;;;;;;728.23;308.13;;;;;;;;;;4957650;28;20194;-56
2023/01/12 10:30:50;;;;;;;800.10;354.20;;;;;;;;;;4940917;28;20236;-56
2023/01/12 10:33:16;;;;;;;778.97;340.70;;;;;;;;;;4938307;28;20245;-56
2023/01/12 10:35:49;;;;;;;710.37;309.73;;;;;;;;;;4947513;28;20316;-56
2023/01/12 10:38:20;;;;;;;770.47;333.70;;;;;;;;;;4930145;28;20578;-56
2023/01/12 10:41:02;;;;;;;754.47;332.97;;;;;;;;;;4947018;28;20189;-56
2023/01/12 10:43:32;;;;;;;712.47;309.33;;;;;;;;;;4955284;28;20605;-56
2023/01/12 10:46:18;;;;;;;766.10;330.47;;;;;;;;;;4940955;28;20214;-56
2023/01/12 10:48:51;;;;;;;751.13;333.30;;;;;;;;;;4941067;28;20225;-56
2023/01/12 10:51:25;;;;;;;762.53;341.33;;;;;;;;;;4947599;28;20477;-56
2023/01/12 10:53:51;;;;;;;848.83;403.40;;;;;;;;;;4917145;28;20569;-56
2023/01/12 10:56:23;;;;;;;753.27;332.00;;;;;;;;;;4940389;28;20338;-56
2023/01/12 10:58:51;;;;;;;762.57;341.27;;;;;;;;;;4945135;28;20457;-56
2023/01/12 11:01:17;;;;;;;720.90;321.40;;;;;;;;;;4936283;28;20230;-56
2023/01/12 11:03:43;;;;;;;849.47;394.57;;;;;;;;;;4882563;28;20371;-56
2023/01/12 11:06:16;;;;;;;876.93;410.33;;;;;;;;;;4901439;28;20248;-56
2023/01/12 11:08:42;;;;;;;803.53;367.57;;;;;;;;;;4924091;28;21221;-56
2023/01/12 11:11:35;;;;;;;730.70;317.20;;;;;;;;;;4923872;28;20261;-56
2023/01/12 11:14:02;;;;;;;689.60;310.10;;;;;;;;;;4918377;28;20214;-56
2023/01/12 11:16:31;;;;;;;854.83;391.17;;;;;;;;;;4895599;28;20312;-56
2023/01/12 11:18:57;;;;;;;806.03;376.27;;;;;;;;;;4922094;28;20213;-56
2023/01/12 11:21:25;;;;;;;843.23;386.37;;;;;;;;;;4930103;28;20654;-56
2023/01/12 11:24:04;;;;;;;705.53;317.23;;;;;;;;;;4930690;28;20277;-56
2023/01/12 11:26:34;;;;;;;794.87;361.10;;;;;;;;;;4934793;28;20237;-56
2023/01/12 11:29:05;;;;;;;831.87;388.20;;;;;;;;;;4913047;28;20557;-56
2023/01/12 11:31:34;;;;;;;724.50;317.60;;;;;;;;;;4946760;28;20737;-56
2023/01/12 11:34:18;;;;;;;728.10;326.13;;;;;;;;;;4912818;28;20217;-56
2023/01/12 11:36:47;;;;;;;851.43;395.93;;;;;;;;;;4925599;28;20381;-55
2023/01/12 11:39:14;;;;;;;854.83;383.93;;;;;;;;;;4908072;28;20224;-55
2023/01/12 11:43:47;;;;;;;873.37;401.53;;;;;;;;;;4903636;28;20228;-56
2023/01/12 11:44:32;;;;;;;885.17;399.37;;;;;;;;;;4918503;28;20296;-55
2023/01/12 11:47:06;;;;;;;753.07;336.43;;;;;;;;;;4921843;28;21408;-55
2023/01/12 11:49:40;;;;;;;709.03;304.33;;;;;;;;;;4923836;28;23297;-56
2023/01/12 11:52:10;;;;;;;789.57;352.00;;;;;;;;;;4928929;28;20255;-56
2023/01/12 11:54:37;;;;;;;781.67;349.83;;;;;;;;;;4943929;28;20627;-56
2023/01/12 11:57:10;;;;;;;786.50;349.30;;;;;;;;;;4926977;28;20502;-56
2023/01/12 11:59:40;;;;;;;821.70;377.03;;;;;;;;;;4920550;28;20355;-56
2023/01/12 12:02:06;;;;;;;693.93;301.53;;;;;;;;;;4920975;28;20213;-56
2023/01/12 12:04:39;;;;;;;707.83;316.63;;;;;;;;;;4931564;28;20212;-56
2023/01/12 12:07:05;;;;;;;824.93;381.60;;;;;;;;;;4915907;28;20472;-56
2023/01/12 12:09:39;;;;;;;767.97;340.57;;;;;;;;;;4929285;28;20260;-55
2023/01/12 12:12:09;;;;;;;716.47;319.00;;;;;;;;;;4930315;28;20265;-56
2023/01/12 12:24:06;;;;;;;557.17;280.23;;;;;;;;;;5015060;27;20604;-55
2023/01/12 12:26:38;;;;;;;580.77;292.63;;;;;;;;;;5004348;28;20222;-55
2023/01/12 12:29:23;;;;;;;587.50;305.63;;;;;;;;;;5004738;28;21104;-55
2023/01/12 12:31:55;;;;;;;603.80;299.30;;;;;;;;;;5011981;28;20338;-55
2023/01/12 12:34:43;;;;;;;668.63;364.33;;;;;;;;;;4986573;28;20382;-56
2023/01/12 12:37:18;;;;;;;710.27;389.37;;;;;;;;;;4990992;28;20768;-55
2023/01/12 12:39:50;;;;;;;637.20;323.30;;;;;;;;;;5003854;28;20796;-55
2023/01/12 12:45:28;;;;;;;574.20;288.17;;;;;;;;;;5022512;28;20230;-55
2023/01/12 12:47:57;;;;;;;608.80;312.47;;;;;;;;;;5021943;28;20234;-55
2023/01/12 12:50:27;;;;;;;578.37;289.27;;;;;;;;;;5029918;28;20289;-55
2023/01/12 12:53:06;;;;;;;685.73;374.73;;;;;;;;;;5003553;28;20207;-55
2023/01/12 12:55:34;;;;;;;596.37;297.57;;;;;;;;;;5012722;28;20801;-55
2023/01/12 12:58:01;;;;;;;677.83;356.30;;;;;;;;;;5002698;28;20356;-55
2023/01/12 13:00:35;;;;;;;585.53;292.47;;;;;;;;;;5011572;28;20230;-55
2023/01/12 13:03:01;;;;;;;671.03;365.43;;;;;;;;;;4991048;28;20210;-55
2023/01/12 13:05:53;;;;;;;596.80;302.03;;;;;;;;;;5004712;28;20219;-55
2023/01/12 13:08:19;;;;;;;586.20;310.60;;;;;;;;;;5015962;28;20454;-55
2023/01/12 13:10:56;;;;;;;564.63;290.27;;;;;;;;;;5014645;28;20543;-56
2023/01/12 13:13:23;;;;;;;590.10;307.63;;;;;;;;;;5019910;28;20348;-55
2023/01/12 13:15:49;;;;;;;642.27;338.73;;;;;;;;;;5022139;28;20651;-55
2023/01/12 13:18:34;;;;;;;533.77;276.67;;;;;;;;;;5022876;28;20202;-55
2023/01/12 13:21:00;;;;;;;572.97;295.13;;;;;;;;;;5015304;28;20219;-55
2023/01/12 13:23:43;;;;;;;599.40;310.80;;;;;;;;;;4990462;28;20575;-55
2023/01/12 13:26:22;;;;;;;526.90;270.47;;;;;;;;;;5019860;28;20742;-55
2023/01/12 13:28:48;;;;;;;567.27;282.03;;;;;;;;;;5026425;28;20178;-55
2023/01/12 13:31:44;;;;;;;595.77;307.77;;;;;;;;;;4996607;28;20174;-55
2023/01/12 13:34:29;;;;;;;576.20;291.17;;;;;;;;;;4991320;28;20217;-55
2023/01/12 13:37:13;;;;;;;611.00;320.83;;;;;;;;;;4967013;28;20212;-55
2023/01/12 13:39:43;;;;;;;677.60;372.17;;;;;;;;;;4971042;28;20229;-55
2023/01/12 13:45:01;;;;;;;606.67;318.67;;;;;;;;;;4945224;28;20283;-55
2023/01/12 13:47:32;;;;;;;585.20;300.10;;;;;;;;;;4990565;28;20221;-55
2023/01/12 13:50:00;;;;;;;609.80;312.53;;;;;;;;;;4993555;28;20222;-55
2023/01/12 13:52:37;;;;;;;605.63;314.80;;;;;;;;;;4948424;28;20637;-55
2023/01/12 13:55:17;;;;;;;664.73;357.87;;;;;;;;;;4949761;28;20237;-55
2023/01/12 13:57:54;;;;;;;603.63;322.20;;;;;;;;;;4952946;28;20312;-55
2023/01/12 14:00:22;;;;;;;670.97;371.07;;;;;;;;;;4949950;28;20221;-55
2023/01/12 14:02:49;;;;;;;649.57;357.33;;;;;;;;;;4968240;28;20576;-55
2023/01/12 14:05:15;;;;;;;609.77;327.13;;;;;;;;;;4972139;28;20863;-55
2023/01/12 14:07:51;;;;;;;620.00;339.33;;;;;;;;;;4967673;28;20236;-55
2023/01/12 14:10:28;;;;;;;552.27;285.90;;;;;;;;;;4996490;28;20217;-55
2023/01/12 14:13:12;;;;;;;531.33;265.47;;;;;;;;;;4996322;28;20892;-55
2023/01/12 14:18:25;;;;;;;617.20;327.87;;;;;;;;;;4965089;28;20501;-54
2023/01/12 14:20:52;;;;;;;595.30;306.90;;;;;;;;;;4997476;28;20705;-55
2023/01/12 14:23:23;;;;;;;677.40;373.93;;;;;;;;;;4971551;28;21330;-55
2023/01/12 14:26:04;;;;;;;670.73;360.00;;;;;;;;;;4950732;28;20605;-53
2023/01/12 14:28:30;;;;;;;613.43;327.07;;;;;;;;;;4976034;28;20283;-52
2023/01/12 14:30:57;;;;;;;610.47;316.70;;;;;;;;;;4966016;28;20756;-52
2023/01/12 14:33:31;;;;;;;595.80;306.40;;;;;;;;;;4951076;28;20229;-51
2023/01/12 14:36:01;;;;;;;542.83;274.13;;;;;;;;;;4970536;28;20671;-55
2023/01/12 14:38:29;;;;;;;685.57;375.90;;;;;;;;;;4944276;28;20404;-55
2023/01/12 14:41:01;;;;;;;582.77;297.70;;;;;;;;;;4972273;28;20250;-55
2023/01/12 14:46:24;;;;;;;571.30;291.30;;;;;;;;;;5011766;28;20208;-55
2023/01/12 14:48:59;;;;;;;605.23;311.50;;;;;;;;;;4995550;28;20581;-55
2023/01/12 14:51:29;;;;;;;559.47;280.97;;;;;;;;;;4996042;28;20894;-55
2023/01/12 14:54:00;;;;;;;574.47;280.40;;;;;;;;;;5057818;28;20281;-55
2023/01/12 14:56:28;;;;;;;535.50;274.50;;;;;;;;;;5039569;28;20659;-55
2023/01/12 14:59:04;;;;;;;540.60;266.33;;;;;;;;;;5024060;28;20221;-55
2023/01/12 15:01:34;;;;;;;528.20;268.90;;;;;;;;;;5030043;28;20250;-55
2023/01/12 15:04:01;;;;;;;514.47;256.63;;;;;;;;;;4984886;28;20216;-55